createdAt,value
2022-09-29T00:00:27.020Z,3.38
2022-09-29T00:02:54.252Z,4.47
2022-09-29T00:05:21.540Z,6.00
2022-09-29T00:07:48.466Z,5.25
2022-09-29T00:10:15.120Z,4.60
2022-09-29T00:12:41.680Z,6.50
2022-09-29T00:15:08.816Z,4.30
2022-09-29T00:17:35.412Z,4.25
2022-09-29T00:20:02.168Z,4.28
2022-09-29T00:22:28.752Z,9.07
2022-09-29T00:24:55.300Z,3.38
2022-09-29T00:27:21.891Z,5.25
2022-09-29T00:29:48.515Z,7.32
2022-09-29T00:32:15.256Z,6.65
2022-09-29T00:34:41.802Z,4.78
2022-09-29T00:37:08.440Z,5.72
2022-09-29T00:39:35.118Z,4.00
2022-09-29T00:42:01.875Z,7.63
2022-09-29T00:44:59.284Z,3.22
2022-09-29T00:47:27.252Z,5.75
2022-09-29T00:49:57.529Z,3.90
2022-09-29T00:52:35.382Z,5.28
2022-09-29T00:55:04.331Z,6.95
2022-09-29T00:57:37.075Z,6.28
2022-09-29T01:00:12.974Z,4.70
2022-09-29T01:02:44.676Z,3.50
2022-09-29T01:05:19.069Z,4.78
2022-09-29T01:07:46.301Z,5.05
2022-09-29T01:10:17.128Z,4.18
2022-09-29T01:12:46.667Z,11.05
2022-09-29T01:15:16.199Z,4.75
2022-09-29T01:17:42.986Z,5.13
2022-09-29T01:20:23.470Z,5.47
2022-09-29T01:23:11.343Z,5.57
2022-09-29T01:26:21.369Z,4.90
2022-09-29T01:29:16.667Z,6.50
2022-09-29T01:31:57.835Z,9.70
2022-09-29T01:34:27.743Z,15.68
2022-09-29T01:37:06.682Z,9.38
2022-09-29T01:39:38.712Z,6.43
2022-09-29T01:42:13.026Z,4.20
2022-09-29T01:44:47.767Z,6.22
2022-09-29T01:47:39.946Z,5.45
2022-09-29T01:50:13.363Z,4.53
2022-09-29T01:52:46.144Z,5.50
2022-09-29T01:55:20.898Z,3.83
2022-09-29T01:57:55.561Z,4.57
2022-09-29T02:00:24.009Z,5.25
2022-09-29T02:03:16.652Z,5.93
2022-09-29T02:05:54.009Z,5.32
2022-09-29T02:08:38.494Z,4.63
2022-09-29T02:11:12.420Z,5.07
2022-09-29T02:14:03.547Z,3.78
2022-09-29T02:16:32.660Z,4.78
2022-09-29T02:19:08.104Z,5.13
2022-09-29T02:21:34.799Z,4.15
2022-09-29T02:24:01.604Z,4.55
2022-09-29T02:26:35.530Z,8.45
2022-09-29T02:29:04.219Z,6.63
2022-09-29T02:31:33.120Z,7.65
2022-09-29T02:34:02.939Z,3.75
2022-09-29T02:37:04.995Z,3.97
2022-09-29T02:39:40.431Z,7.22
2022-09-29T02:42:22.234Z,6.93
2022-09-29T02:44:58.995Z,10.63
2022-09-29T02:47:45.259Z,8.05
2022-09-29T02:50:40.972Z,9.52
2022-09-29T02:53:14.133Z,6.22
2022-09-29T02:55:57.262Z,9.35
2022-09-29T02:59:04.411Z,4.50
2022-09-29T03:01:32.670Z,8.68
2022-09-29T03:04:04.170Z,5.97
2022-09-29T03:06:31.328Z,5.45
2022-09-29T03:08:57.903Z,5.15
2022-09-29T03:11:24.595Z,5.60
2022-09-29T03:13:51.223Z,5.20
2022-09-29T03:16:17.910Z,13.40
2022-09-29T03:18:44.601Z,7.78
2022-09-29T03:21:11.298Z,7.30
2022-09-29T03:23:37.872Z,6.35
2022-09-29T03:26:04.548Z,8.18
2022-09-29T03:28:31.158Z,6.50
2022-09-29T03:31:05.624Z,6.03
2022-09-29T03:33:32.767Z,6.30
2022-09-29T03:35:59.617Z,8.30
2022-09-29T03:38:26.215Z,7.22
2022-09-29T03:40:52.843Z,8.57
2022-09-29T03:43:19.473Z,4.60
2022-09-29T03:45:53.349Z,5.30
2022-09-29T03:48:23.015Z,5.38
2022-09-29T03:50:52.241Z,6.00
2022-09-29T03:53:18.825Z,6.43
2022-09-29T03:55:49.550Z,4.70
2022-09-29T03:58:17.244Z,8.63
2022-09-29T04:00:44.260Z,5.22
2022-09-29T04:03:11.494Z,7.57
2022-09-29T04:05:40.264Z,4.15
2022-09-29T04:08:08.225Z,5.20
2022-09-29T04:10:38.264Z,3.72
2022-09-29T04:13:05.837Z,5.70
2022-09-29T04:15:32.795Z,8.25
2022-09-29T04:17:59.706Z,5.28
2022-09-29T04:20:26.890Z,7.28
2022-09-29T04:22:53.665Z,6.65
2022-09-29T04:25:20.418Z,5.68
2022-09-29T04:27:46.955Z,9.25
2022-09-29T04:30:13.714Z,6.78
2022-09-29T04:32:40.285Z,6.20
2022-09-29T04:35:07.553Z,5.00
2022-09-29T04:37:34.203Z,5.00
2022-09-29T04:40:00.983Z,6.35
2022-09-29T04:42:27.571Z,5.93
2022-09-29T04:44:54.123Z,6.97
2022-09-29T04:47:20.739Z,10.65
2022-09-29T04:49:47.317Z,14.70
2022-09-29T04:52:14.462Z,10.93
2022-09-29T04:54:41.177Z,11.15
2022-09-29T04:57:08.023Z,13.55
2022-09-29T04:59:34.623Z,8.93
2022-09-29T05:02:01.451Z,9.73
2022-09-29T05:04:28.147Z,13.23
2022-09-29T05:06:54.750Z,10.70
2022-09-29T05:09:24.620Z,5.32
2022-09-29T05:11:51.756Z,7.50
2022-09-29T05:14:18.377Z,6.07
2022-09-29T05:16:45.073Z,7.95
2022-09-29T05:19:11.980Z,4.55
2022-09-29T05:21:38.602Z,4.70
2022-09-29T05:24:05.503Z,7.05
2022-09-29T05:26:35.674Z,5.93
2022-09-29T05:29:02.217Z,5.80
2022-09-29T05:31:28.849Z,7.82
2022-09-29T05:33:57.442Z,6.43
2022-09-29T05:36:24.441Z,6.30
2022-09-29T05:38:52.000Z,9.98
2022-09-29T05:41:22.582Z,22.45
2022-09-29T05:43:51.065Z,11.38
2022-09-29T05:46:19.456Z,17.00
2022-09-29T05:48:46.966Z,10.00
2022-09-29T05:51:19.373Z,8.40
2022-09-29T05:53:49.038Z,7.68
2022-09-29T05:56:19.241Z,11.50
2022-09-29T05:58:45.812Z,11.95
2022-09-29T06:01:15.971Z,10.57
2022-09-29T06:03:43.309Z,6.32
2022-09-29T06:06:12.869Z,9.25
2022-09-29T06:08:40.042Z,8.30
2022-09-29T06:11:09.645Z,5.75
2022-09-29T06:13:40.814Z,7.20
2022-09-29T06:16:08.765Z,6.32
2022-09-29T06:18:36.057Z,7.32
2022-09-29T06:21:05.426Z,5.93
2022-09-29T06:23:32.675Z,6.57
2022-09-29T06:26:02.012Z,4.53
2022-09-29T06:28:29.267Z,7.07
2022-09-29T06:31:04.760Z,8.50
2022-09-29T06:33:33.024Z,7.03
2022-09-29T06:36:22.467Z,12.73
2022-09-29T06:38:49.075Z,3.90
2022-09-29T06:41:15.624Z,8.13
2022-09-29T06:43:42.208Z,4.10
2022-09-29T06:46:08.850Z,4.47
2022-09-29T06:48:35.439Z,7.20
2022-09-29T06:51:09.895Z,5.00
2022-09-29T06:53:38.677Z,6.47
2022-09-29T06:56:05.834Z,3.83
2022-09-29T06:58:32.868Z,6.72
2022-09-29T07:01:03.886Z,7.97
2022-09-29T07:03:30.550Z,7.65
2022-09-29T07:06:15.576Z,9.75
2022-09-29T07:08:44.250Z,7.22
2022-09-29T07:11:11.188Z,6.47
2022-09-29T07:13:38.736Z,5.90
2022-09-29T07:16:11.110Z,6.53
2022-09-29T07:18:40.537Z,5.78
2022-09-29T07:21:18.928Z,5.35
2022-09-29T07:23:47.062Z,10.90
2022-09-29T07:26:16.690Z,7.30
2022-09-29T07:28:44.794Z,5.85
2022-09-29T07:31:17.496Z,5.75
2022-09-29T07:33:46.450Z,5.83
2022-09-29T07:36:14.571Z,6.03
2022-09-29T07:38:41.498Z,8.43
2022-09-29T07:41:13.419Z,5.55
2022-09-29T07:43:40.263Z,5.25
2022-09-29T07:46:07.994Z,4.93
2022-09-29T07:48:35.766Z,5.05
2022-09-29T07:51:05.210Z,10.18
2022-09-29T07:53:32.142Z,6.18
2022-09-29T07:56:18.410Z,5.68
2022-09-29T07:58:46.267Z,5.97
2022-09-29T08:01:16.195Z,5.40
2022-09-29T08:03:48.878Z,5.82
2022-09-29T08:06:15.563Z,6.65
2022-09-29T08:08:52.742Z,7.00
2022-09-29T08:11:30.820Z,6.55
2022-09-29T08:13:58.027Z,5.22
2022-09-29T08:16:24.726Z,6.63
2022-09-29T08:18:51.474Z,5.72
2022-09-29T08:21:18.116Z,5.32
2022-09-29T08:23:44.918Z,6.05
2022-09-29T08:26:27.129Z,7.03
2022-09-29T08:29:07.783Z,6.90
2022-09-29T08:31:35.228Z,12.88
2022-09-29T08:34:01.926Z,6.65
2022-09-29T08:36:29.469Z,16.13
2022-09-29T08:38:57.473Z,5.57
2022-09-29T08:41:44.227Z,8.65
2022-09-29T08:44:35.678Z,9.40
2022-09-29T08:49:45.526Z,6.78
2022-09-29T08:52:22.882Z,5.55
2022-09-29T08:54:57.467Z,5.80
2022-09-29T08:57:25.145Z,8.85
2022-09-29T08:59:56.160Z,5.65
2022-09-29T09:02:31.804Z,5.68
2022-09-29T09:05:08.506Z,5.22
2022-09-29T09:08:04.014Z,5.60
2022-09-29T09:10:47.082Z,5.63
2022-09-29T09:13:32.416Z,7.30
2022-09-29T09:16:06.228Z,5.82
2022-09-29T09:19:10.144Z,5.90
2022-09-29T09:21:47.289Z,6.35
2022-09-29T09:24:32.128Z,5.95
2022-09-29T09:26:59.253Z,5.63
2022-09-29T09:29:38.013Z,5.25
2022-09-29T09:32:11.347Z,6.20
2022-09-29T09:34:44.003Z,5.82
2022-09-29T09:39:47.452Z,28.00
2022-09-29T09:42:27.263Z,6.40
2022-09-29T09:45:05.575Z,6.00
2022-09-29T09:47:38.296Z,5.63
2022-09-29T09:50:14.062Z,5.47
2022-09-29T09:52:59.462Z,6.50
2022-09-29T09:55:27.169Z,6.53
2022-09-29T09:58:37.698Z,11.90
2022-09-29T10:01:10.257Z,5.43
2022-09-29T10:03:37.503Z,5.93
2022-09-29T10:06:07.900Z,11.20
2022-09-29T10:08:39.421Z,6.32
2022-09-29T10:11:16.322Z,5.82
2022-09-29T10:13:44.078Z,5.63
2022-09-29T10:16:18.871Z,6.05
2022-09-29T10:18:53.365Z,6.10
2022-09-29T10:21:26.236Z,7.43
2022-09-29T10:23:54.657Z,8.95
2022-09-29T10:26:27.985Z,5.70
2022-09-29T10:28:59.090Z,5.13
2022-09-29T10:31:31.748Z,5.60
2022-09-29T10:33:58.274Z,6.22
2022-09-29T10:36:32.474Z,6.10
2022-09-29T10:39:03.404Z,6.22
2022-09-29T10:41:31.791Z,6.25
2022-09-29T10:44:20.871Z,5.82
2022-09-29T10:46:54.969Z,5.55
2022-09-29T10:49:24.193Z,4.93
2022-09-29T10:51:53.679Z,5.45
2022-09-29T10:54:25.626Z,6.35
2022-09-29T10:56:53.900Z,5.15
2022-09-29T10:59:24.157Z,5.18
2022-09-29T11:01:54.322Z,5.43
2022-09-29T11:04:29.048Z,5.57
2022-09-29T11:06:56.135Z,5.90
2022-09-29T11:09:22.721Z,5.88
2022-09-29T11:11:49.349Z,5.55
2022-09-29T11:14:31.228Z,6.43
2022-09-29T11:17:00.627Z,5.57
2022-09-29T11:19:30.593Z,5.72
2022-09-29T11:22:20.744Z,5.85
2022-09-29T11:24:53.320Z,5.70
2022-09-29T11:27:19.852Z,6.17
2022-09-29T11:30:36.092Z,5.63
2022-09-29T11:33:18.524Z,7.85
2022-09-29T11:36:01.151Z,5.50
2022-09-29T11:38:48.906Z,4.90
2022-09-29T11:41:25.480Z,5.10
2022-09-29T11:43:55.926Z,6.28
2022-09-29T11:46:42.820Z,5.38
2022-09-29T11:49:35.336Z,5.53
2022-09-29T11:52:39.399Z,5.43
2022-09-29T11:55:19.008Z,4.90
2022-09-29T11:58:02.758Z,5.47
2022-09-29T12:01:02.157Z,5.10
2022-09-29T12:03:41.542Z,5.47
2022-09-29T12:06:28.450Z,5.95
2022-09-29T12:09:34.252Z,6.07
2022-09-29T12:12:24.387Z,6.90
2022-09-29T12:15:08.062Z,5.35
2022-09-29T12:17:42.057Z,6.68
2022-09-29T12:20:18.256Z,5.25
2022-09-29T12:22:47.837Z,5.28
2022-09-29T12:25:17.687Z,5.13
2022-09-29T12:27:47.864Z,6.28
2022-09-29T12:30:23.066Z,5.43
2022-09-29T12:33:19.345Z,5.22
2022-09-29T12:36:33.045Z,5.80
2022-09-29T12:39:37.786Z,6.00
2022-09-29T12:42:38.086Z,5.88
2022-09-29T12:45:11.359Z,5.28
2022-09-29T12:50:23.012Z,6.82
2022-09-29T12:52:58.866Z,5.30
2022-09-29T12:55:34.683Z,5.50
2022-09-29T12:58:05.310Z,4.68
2022-09-29T13:00:35.211Z,4.88
2022-09-29T13:03:23.584Z,4.90
2022-09-29T13:06:25.774Z,5.68
2022-09-29T13:09:27.858Z,6.72
2022-09-29T13:12:15.021Z,4.72
2022-09-29T13:15:23.666Z,5.40
2022-09-29T13:18:27.603Z,5.50
2022-09-29T13:21:17.195Z,5.22
2022-09-29T13:23:52.881Z,5.60
2022-09-29T13:26:38.359Z,5.35
2022-09-29T13:29:24.060Z,5.07
2022-09-29T13:31:53.074Z,4.72
2022-09-29T13:34:30.412Z,5.18
2022-09-29T13:37:20.736Z,7.63
2022-09-29T13:40:01.276Z,5.65
2022-09-29T13:42:42.535Z,5.73
2022-09-29T13:45:34.331Z,5.07
2022-09-29T13:48:16.479Z,5.25
2022-09-29T13:50:49.126Z,7.13
2022-09-29T13:53:47.980Z,5.60
2022-09-29T13:56:20.920Z,5.53
2022-09-29T13:58:47.462Z,5.25
2022-09-29T14:01:32.208Z,5.78
2022-09-29T14:03:59.355Z,5.35
2022-09-29T14:06:43.503Z,5.72
2022-09-29T14:09:20.490Z,5.55
2022-09-29T14:11:56.002Z,5.68
2022-09-29T14:14:45.808Z,5.45
2022-09-29T14:17:31.664Z,5.97
2022-09-29T14:20:19.781Z,5.35
2022-09-29T14:22:46.395Z,5.50
2022-09-29T14:25:15.071Z,5.82
2022-09-29T14:27:58.392Z,4.85
2022-09-29T14:30:43.941Z,5.47
2022-09-29T14:33:21.128Z,5.50
2022-09-29T14:36:00.215Z,5.43
2022-09-29T14:38:43.713Z,5.13
2022-09-29T14:41:13.111Z,5.75
2022-09-29T14:43:41.679Z,5.75
2022-09-29T14:46:48.571Z,7.03
2022-09-29T14:49:54.804Z,6.13
2022-09-29T14:52:21.414Z,5.47
2022-09-29T14:54:59.997Z,5.57
2022-09-29T14:57:35.676Z,6.40
2022-09-29T15:00:19.182Z,6.90
2022-09-29T15:02:59.792Z,6.10
2022-09-29T15:05:32.579Z,5.75
2022-09-29T15:08:01.377Z,6.93
2022-09-29T15:10:30.717Z,5.78
2022-09-29T15:13:15.818Z,5.53
2022-09-29T15:15:46.367Z,7.90
2022-09-29T15:18:45.464Z,5.95
2022-09-29T15:21:22.469Z,5.85
2022-09-29T15:23:58.661Z,20.92
2022-09-29T15:26:31.352Z,10.98
2022-09-29T15:28:58.937Z,19.65
2022-09-29T15:31:34.312Z,14.15
2022-09-29T15:34:02.888Z,13.18
2022-09-29T15:36:35.586Z,8.40
2022-09-29T15:39:24.251Z,8.57
2022-09-29T15:42:00.869Z,10.52
2022-09-29T15:44:29.743Z,10.95
2022-09-29T15:46:57.598Z,11.10
2022-09-29T15:49:29.068Z,12.07
2022-09-29T15:51:59.990Z,13.30
2022-09-29T15:54:47.765Z,16.42
2022-09-29T15:57:53.419Z,33.50
2022-09-29T16:00:23.004Z,37.95
2022-09-29T16:02:51.948Z,23.92
2022-09-29T16:05:23.269Z,16.75
2022-09-29T16:08:03.245Z,13.15
2022-09-29T16:10:33.867Z,14.73
2022-09-29T16:13:06.124Z,40.72
2022-09-29T16:15:54.526Z,57.80
2022-09-29T16:18:25.848Z,39.55
2022-09-29T16:20:57.993Z,44.80
2022-09-29T16:23:34.711Z,34.45
2022-09-29T16:26:07.391Z,20.70
2022-09-29T16:28:36.640Z,12.50
2022-09-29T16:31:04.675Z,6.18
2022-09-29T16:33:34.550Z,6.97
2022-09-29T16:36:14.173Z,6.05
2022-09-29T16:38:48.491Z,6.13
2022-09-29T16:41:37.940Z,6.18
2022-09-29T16:44:29.452Z,5.53
2022-09-29T16:46:59.174Z,5.28
2022-09-29T16:49:29.957Z,7.10
2022-09-29T16:52:00.600Z,9.20
2022-09-29T16:54:31.133Z,8.02
2022-09-29T16:57:18.829Z,7.22
2022-09-29T16:59:46.164Z,7.65
2022-09-29T17:02:13.864Z,11.60
2022-09-29T17:04:40.723Z,4.80
2022-09-29T17:07:16.469Z,4.65
2022-09-29T17:09:54.660Z,4.65
2022-09-29T17:12:22.201Z,4.45
2022-09-29T17:14:50.322Z,4.95
2022-09-29T17:17:27.837Z,3.75
2022-09-29T17:19:58.685Z,4.80
2022-09-29T17:22:37.175Z,4.25
2022-09-29T17:25:04.783Z,3.50
2022-09-29T17:27:49.870Z,3.88
2022-09-29T17:30:23.369Z,4.15
2022-09-29T17:35:19.801Z,3.60
2022-09-29T17:37:50.050Z,3.90
2022-09-29T17:40:19.377Z,5.22
2022-09-29T17:42:47.308Z,5.38
2022-09-29T17:45:21.376Z,5.10
2022-09-29T17:47:49.543Z,6.32
2022-09-29T17:50:30.986Z,6.03
2022-09-29T17:52:58.962Z,7.68
2022-09-29T17:55:27.013Z,5.88
2022-09-29T17:57:53.926Z,6.55
2022-09-29T18:00:26.491Z,6.47
2022-09-29T18:02:57.481Z,9.80
2022-09-29T18:05:28.765Z,6.93
2022-09-29T18:07:57.483Z,7.05
2022-09-29T18:10:29.506Z,12.52
2022-09-29T18:12:56.681Z,8.80
2022-09-29T18:15:23.795Z,16.13
2022-09-29T18:17:56.153Z,10.50
2022-09-29T18:20:23.681Z,6.95
2022-09-29T18:22:50.405Z,7.00
2022-09-29T18:25:18.794Z,5.05
2022-09-29T18:27:46.873Z,5.47
2022-09-29T18:30:22.513Z,5.05
2022-09-29T18:33:02.964Z,4.57
2022-09-29T18:35:34.868Z,4.97
2022-09-29T18:38:02.329Z,4.93
2022-09-29T18:40:31.151Z,4.32
2022-09-29T18:42:59.689Z,4.43
2022-09-29T18:45:29.625Z,4.30
2022-09-29T18:48:03.935Z,4.43
2022-09-29T18:50:52.084Z,4.10
2022-09-29T18:53:21.690Z,3.75
2022-09-29T18:55:52.429Z,4.28
2022-09-29T18:58:20.943Z,3.97
2022-09-29T19:00:53.997Z,4.60
2022-09-29T19:03:29.266Z,13.63
2022-09-29T19:05:56.767Z,19.63
2022-09-29T19:08:24.226Z,6.65
2022-09-29T19:10:57.681Z,6.18
2022-09-29T19:15:51.067Z,4.25
2022-09-29T19:18:23.306Z,4.40
2022-09-29T19:20:51.410Z,3.90
2022-09-29T19:23:20.986Z,6.10
2022-09-29T19:25:49.340Z,5.22
2022-09-29T19:28:17.201Z,3.97
2022-09-29T19:30:44.878Z,4.38
2022-09-29T19:33:15.004Z,3.78
2022-09-29T19:35:52.582Z,4.43
2022-09-29T19:38:19.256Z,4.32
2022-09-29T19:40:47.073Z,5.70
2022-09-29T19:43:14.922Z,4.65
2022-09-29T19:45:43.279Z,4.45
2022-09-29T19:48:14.525Z,4.78
2022-09-29T19:50:59.630Z,4.82
2022-09-29T19:53:26.220Z,4.30
2022-09-29T19:55:53.033Z,4.90
2022-09-29T19:58:20.364Z,4.55
2022-09-29T20:00:47.127Z,4.97
2022-09-29T20:03:13.769Z,5.20
2022-09-29T20:05:40.522Z,6.95
2022-09-29T20:08:07.865Z,5.78
2022-09-29T20:10:34.527Z,5.82
2022-09-29T20:13:02.892Z,6.65
2022-09-29T20:15:29.936Z,4.70
2022-09-29T20:17:56.478Z,4.72
2022-09-29T20:20:23.818Z,4.93
2022-09-29T20:22:51.582Z,6.65
2022-09-29T20:25:18.282Z,5.70
2022-09-29T20:27:44.895Z,7.57
2022-09-29T20:30:11.788Z,5.82
2022-09-29T20:32:38.549Z,30.80
2022-09-29T20:35:06.306Z,6.15
2022-09-29T20:37:33.278Z,4.70
2022-09-29T20:40:00.474Z,5.20
2022-09-29T20:42:27.124Z,4.03
2022-09-29T20:44:56.174Z,4.68
2022-09-29T20:47:25.064Z,4.28
2022-09-29T20:49:55.221Z,4.80
2022-09-29T20:52:23.404Z,4.88
2022-09-29T20:54:50.164Z,5.28
2022-09-29T20:57:16.896Z,5.22
2022-09-29T20:59:43.941Z,5.28
2022-09-29T21:02:12.822Z,5.50
2022-09-29T21:04:40.091Z,4.75
2022-09-29T21:07:26.621Z,6.18
2022-09-29T21:09:53.630Z,4.95
2022-09-29T21:12:20.727Z,8.90
2022-09-29T21:14:47.460Z,4.90
2022-09-29T21:17:14.117Z,4.35
2022-09-29T21:19:40.664Z,7.40
2022-09-29T21:22:07.296Z,6.53
2022-09-29T21:24:34.732Z,6.90
2022-09-29T21:27:01.278Z,4.78
2022-09-29T21:29:28.624Z,5.28
2022-09-29T21:31:55.460Z,4.22
2022-09-29T21:34:22.234Z,4.90
2022-09-29T21:36:48.912Z,5.70
2022-09-29T21:39:17.048Z,5.45
2022-09-29T21:41:44.524Z,5.15
2022-09-29T21:44:17.923Z,6.78
2022-09-29T21:49:13.540Z,6.38
2022-09-29T21:51:45.337Z,4.55
2022-09-29T21:54:14.306Z,5.30
2022-09-29T21:56:42.802Z,7.32
2022-09-29T21:59:11.097Z,5.13
2022-09-29T22:01:39.877Z,5.25
2022-09-29T22:04:08.035Z,5.30
2022-09-29T22:06:36.457Z,7.60
2022-09-29T22:09:05.086Z,5.50
2022-09-29T22:11:34.064Z,6.60
2022-09-29T22:14:01.787Z,5.70
2022-09-29T22:16:31.440Z,5.03
2022-09-29T22:19:21.938Z,6.32
2022-09-29T22:21:46.398Z,5.55
2022-09-29T22:24:13.340Z,5.93
2022-09-29T22:26:41.084Z,5.10
2022-09-29T22:29:08.165Z,5.00
2022-09-29T22:31:34.960Z,5.60
2022-09-29T22:34:03.186Z,6.47
2022-09-29T22:36:32.267Z,6.43
2022-09-29T22:38:58.978Z,5.35
2022-09-29T22:41:25.663Z,5.15
2022-09-29T22:43:54.364Z,5.78
2022-09-29T22:46:22.717Z,6.95
2022-09-29T22:48:49.511Z,6.95
2022-09-29T22:51:16.151Z,6.95
2022-09-29T22:53:42.948Z,6.38
2022-09-29T22:56:12.985Z,5.85
2022-09-29T22:58:41.916Z,7.85
2022-09-29T23:01:13.620Z,5.45
2022-09-29T23:03:41.974Z,5.53
2022-09-29T23:06:10.120Z,6.07
2022-09-29T23:08:38.021Z,9.65
2022-09-29T23:11:07.913Z,8.20
2022-09-29T23:13:39.619Z,6.30
2022-09-29T23:16:11.943Z,5.50
2022-09-29T23:18:44.873Z,5.72
2022-09-29T23:21:19.212Z,7.60
2022-09-29T23:23:57.069Z,5.55
2022-09-29T23:26:24.779Z,8.48
2022-09-29T23:28:51.959Z,7.60
2022-09-29T23:31:18.770Z,6.00
2022-09-29T23:33:45.408Z,6.47
2022-09-29T23:36:14.755Z,5.97
2022-09-29T23:39:01.977Z,8.68
2022-09-29T23:41:30.501Z,5.90
2022-09-29T23:44:00.025Z,7.18
2022-09-29T23:46:31.913Z,6.43
2022-09-29T23:49:04.548Z,6.78
2022-09-29T23:51:34.122Z,8.18
2022-09-29T23:54:00.973Z,9.85
2022-09-29T23:56:27.933Z,6.03
2022-09-29T23:58:55.345Z,6.13
